Time;durP1;ratioP1;P1;durP2;ratioP2;P2;SDS_P1;SDS_P2;PMS_P1;PMS_P2;Temp;Humidity;BMP_temperature;BMP_pressure;BME280_temperature;BME280_humidity;BME280_pressure;Samples;Min_cycle;Max_cycle;Signal;HPM_P1;HPM_P2
2021/04/08 00:01:31;;;;;;;13.80;6.80;;;4.00;99.90;;;;;;5068106;28;20210;-76
2021/04/08 00:03:57;;;;;;;11.93;6.67;;;3.90;99.90;;;;;;5064647;28;20261;-76
2021/04/08 00:06:22;;;;;;;15.30;6.83;;;3.80;99.90;;;;;;5067866;28;20186;-76
2021/04/08 00:08:49;;;;;;;15.87;7.13;;;3.80;99.90;;;;;;5070138;28;20287;-77
2021/04/08 00:11:15;;;;;;;16.80;7.10;;;3.70;99.90;;;;;;5068785;28;20196;-77
2021/04/08 00:13:40;;;;;;;13.80;7.03;;;3.70;99.90;;;;;;5069387;28;20190;-76
2021/04/08 00:16:06;;;;;;;16.50;7.70;;;3.80;99.90;;;;;;5067695;28;20178;-77
2021/04/08 00:18:32;;;;;;;18.07;7.27;;;3.70;99.90;;;;;;5070180;28;20343;-76
2021/04/08 00:20:59;;;;;;;19.70;6.90;;;3.70;99.90;;;;;;5068008;28;20187;-76
2021/04/08 00:23:24;;;;;;;18.10;7.50;;;3.70;99.90;;;;;;5070242;28;20732;-76
2021/04/08 00:25:50;;;;;;;19.73;6.90;;;3.60;99.90;;;;;;5070387;28;20178;-77
2021/04/08 00:28:16;;;;;;;12.90;6.40;;;3.80;99.90;;;;;;5068557;28;20296;-77
2021/04/08 00:30:45;;;;;;;14.10;6.67;;;3.80;99.90;;;;;;5070835;28;20983;-77
2021/04/08 00:33:12;;;;;;;19.30;6.93;;;3.80;99.90;;;;;;5070241;28;20191;-77
2021/04/08 00:35:38;;;;;;;13.97;6.63;;;3.80;99.90;;;;;;5067763;28;20257;-76
2021/04/08 00:38:04;;;;;;;15.03;6.77;;;3.70;99.90;;;;;;5070899;28;20249;-78
2021/04/08 00:40:30;;;;;;;13.70;6.40;;;3.80;99.90;;;;;;5068100;28;20186;-76
2021/04/08 00:42:56;;;;;;;13.57;6.93;;;3.80;99.90;;;;;;5071027;28;20227;-76
2021/04/08 00:45:21;;;;;;;17.17;7.43;;;3.80;99.90;;;;;;5072697;28;20673;-77
2021/04/08 00:47:47;;;;;;;16.27;6.70;;;3.80;99.90;;;;;;5070341;28;20214;-76
2021/04/08 00:50:14;;;;;;;14.33;6.60;;;3.80;99.90;;;;;;5072305;28;20225;-76
2021/04/08 00:52:42;;;;;;;14.90;6.97;;;3.90;99.90;;;;;;5058000;28;20545;-76
2021/04/08 00:55:09;;;;;;;15.17;7.20;;;3.90;99.90;;;;;;5072969;28;20185;-77
2021/04/08 00:57:35;;;;;;;17.67;6.87;;;3.90;99.90;;;;;;5073329;28;20173;-77
2021/04/08 01:00:05;;;;;;;14.03;6.83;;;3.90;99.90;;;;;;5068611;28;20191;-76
2021/04/08 01:02:31;;;;;;;13.13;6.27;;;3.90;99.90;;;;;;5071554;28;20236;-76
2021/04/08 01:04:58;;;;;;;17.13;7.03;;;3.90;99.90;;;;;;5069891;28;20182;-76
2021/04/08 01:07:24;;;;;;;16.00;7.03;;;3.80;99.90;;;;;;5065194;28;20691;-77
2021/04/08 01:09:50;;;;;;;16.17;6.73;;;3.80;99.90;;;;;;5073686;28;20608;-76
2021/04/08 01:12:15;;;;;;;13.50;6.80;;;3.80;99.90;;;;;;5067255;28;20231;-76
2021/04/08 01:14:41;;;;;;;18.20;6.90;;;3.80;99.90;;;;;;5070316;28;20177;-76
2021/04/08 01:17:17;;;;;;;14.23;7.00;;;3.90;99.90;;;;;;5073335;28;20323;-76
2021/04/08 01:20:13;;;;;;;15.27;6.40;;;3.90;99.90;;;;;;5069521;28;20186;-76
2021/04/08 01:23:35;;;;;;;15.20;6.47;;;3.90;99.90;;;;;;5069204;28;20189;-76
2021/04/08 01:26:22;;;;;;;19.17;7.27;;;3.70;99.90;;;;;;5027374;28;20209;-77
2021/04/08 01:29:21;;;;;;;17.93;6.80;;;3.70;99.90;;;;;;5068498;28;20253;-76
2021/04/08 01:31:49;;;;;;;14.43;6.57;;;3.70;99.90;;;;;;5069115;28;20205;-76
2021/04/08 01:34:16;;;;;;;12.73;5.70;;;3.70;99.90;;;;;;5070841;28;20195;-76
2021/04/08 01:36:44;;;;;;;19.27;6.27;;;3.70;99.90;;;;;;5063510;28;20301;-76
2021/04/08 01:39:14;;;;;;;15.70;6.00;;;3.60;99.90;;;;;;5071651;28;20194;-76
2021/04/08 01:41:44;;;;;;;16.57;5.53;;;3.70;99.90;;;;;;5070634;28;20214;-76
2021/04/08 01:44:16;;;;;;;15.47;5.97;;;3.80;99.90;;;;;;5070747;28;20207;-77
2021/04/08 01:46:45;;;;;;;14.47;6.10;;;3.90;99.90;;;;;;5069429;28;20194;-75
2021/04/08 01:49:16;;;;;;;15.60;5.77;;;3.90;99.90;;;;;;5066711;28;20191;-75
2021/04/08 01:51:42;;;;;;;16.40;6.17;;;4.00;99.90;;;;;;5054264;28;20186;-75
2021/04/08 01:54:08;;;;;;;14.03;5.70;;;4.00;99.90;;;;;;5071043;28;20187;-76
2021/04/08 01:56:36;;;;;;;15.23;6.00;;;4.10;99.90;;;;;;5085313;28;20185;-76
2021/04/08 01:59:04;;;;;;;17.23;5.67;;;4.20;99.90;;;;;;5065098;28;20627;-75
2021/04/08 02:01:31;;;;;;;11.73;5.87;;;4.20;99.90;;;;;;5068650;28;20187;-76
2021/04/08 02:03:57;;;;;;;15.07;5.70;;;4.30;99.90;;;;;;5069836;28;20180;-76
2021/04/08 02:06:27;;;;;;;15.80;5.70;;;4.30;99.90;;;;;;5068300;28;20182;-76
2021/04/08 02:08:54;;;;;;;11.80;5.20;;;4.40;99.90;;;;;;5069262;28;20253;-76
2021/04/08 02:11:21;;;;;;;15.77;5.60;;;4.50;99.90;;;;;;5073235;28;20195;-76
2021/04/08 02:13:49;;;;;;;12.20;5.23;;;4.60;99.90;;;;;;5064754;28;20201;-76
2021/04/08 02:16:17;;;;;;;12.87;5.30;;;4.60;99.90;;;;;;5071226;28;20183;-76
2021/04/08 02:18:44;;;;;;;12.23;5.60;;;4.60;99.90;;;;;;5071151;28;20199;-76
2021/04/08 02:21:11;;;;;;;14.47;6.23;;;4.70;99.90;;;;;;5071763;28;20190;-78
2021/04/08 02:23:40;;;;;;;11.97;4.90;;;4.70;99.90;;;;;;5066494;28;20578;-76
2021/04/08 02:26:10;;;;;;;12.33;4.93;;;4.80;99.90;;;;;;5070744;28;20188;-77
2021/04/08 02:28:37;;;;;;;14.33;5.60;;;4.80;99.90;;;;;;5071977;28;20762;-77
2021/04/08 02:31:03;;;;;;;16.80;6.33;;;4.80;99.90;;;;;;5066831;28;20207;-77
2021/04/08 02:33:30;;;;;;;14.20;5.70;;;4.80;99.90;;;;;;5064298;28;20179;-77
2021/04/08 02:35:58;;;;;;;12.73;5.63;;;4.80;99.90;;;;;;5071951;28;20234;-78
2021/04/08 02:38:26;;;;;;;13.30;5.87;;;4.80;99.90;;;;;;5072207;28;20183;-76
2021/04/08 02:40:52;;;;;;;15.23;6.20;;;4.50;99.90;;;;;;5067731;28;20209;-77
2021/04/08 02:43:18;;;;;;;18.83;5.67;;;4.50;99.90;;;;;;5057907;28;20233;-78
2021/04/08 02:45:44;;;;;;;13.40;5.60;;;4.40;99.90;;;;;;5068414;28;20198;-77
2021/04/08 02:48:13;;;;;;;14.33;5.90;;;4.50;99.90;;;;;;5066902;28;20457;-77
2021/04/08 02:50:41;;;;;;;13.37;6.00;;;4.50;99.90;;;;;;5070823;28;20233;-76
2021/04/08 02:53:24;;;;;;;13.70;5.53;;;4.50;99.90;;;;;;5071595;28;20189;-77
2021/04/08 02:55:54;;;;;;;15.20;5.83;;;4.50;99.90;;;;;;5067565;28;20181;-77
2021/04/08 02:58:23;;;;;;;15.67;5.83;;;4.50;99.90;;;;;;5067873;28;20180;-77
2021/04/08 03:01:13;;;;;;;17.67;6.00;;;4.40;99.90;;;;;;5069544;28;20242;-77
2021/04/08 03:03:57;;;;;;;14.33;5.77;;;4.50;99.90;;;;;;5083064;28;20288;-77
2021/04/08 03:06:25;;;;;;;15.37;6.17;;;4.50;99.90;;;;;;5064371;28;20196;-77
2021/04/08 03:08:57;;;;;;;15.93;5.80;;;4.70;99.90;;;;;;5062257;28;20306;-77
2021/04/08 03:11:33;;;;;;;12.63;5.50;;;4.70;99.90;;;;;;5069448;28;20178;-77
2021/04/08 03:14:06;;;;;;;13.70;5.53;;;4.60;99.90;;;;;;5074472;28;20664;-77
2021/04/08 03:16:41;;;;;;;13.67;5.77;;;4.60;99.90;;;;;;5082699;28;20205;-77
2021/04/08 03:19:11;;;;;;;16.43;6.00;;;4.60;99.90;;;;;;5072137;28;20601;-78
2021/04/08 03:21:37;;;;;;;15.77;6.07;;;4.70;99.90;;;;;;5068975;28;20714;-77
2021/04/08 03:24:04;;;;;;;14.87;5.83;;;4.70;99.90;;;;;;5068652;28;20216;-78
2021/04/08 03:26:30;;;;;;;15.27;5.60;;;4.70;99.90;;;;;;5062903;28;20183;-77
2021/04/08 03:28:57;;;;;;;12.80;5.60;;;4.70;99.90;;;;;;5070524;28;20201;-77
2021/04/08 03:31:24;;;;;;;13.47;5.37;;;4.80;99.90;;;;;;5070971;28;20182;-77
2021/04/08 03:33:51;;;;;;;14.40;6.63;;;4.90;99.90;;;;;;5066310;28;20430;-77
2021/04/08 03:36:19;;;;;;;15.17;5.90;;;4.90;99.90;;;;;;5069667;28;20187;-77
2021/04/08 03:38:46;;;;;;;15.87;6.37;;;5.00;99.90;;;;;;5062641;28;20613;-76
2021/04/08 03:41:12;;;;;;;17.87;6.80;;;5.00;99.90;;;;;;5068352;28;20213;-77
2021/04/08 03:43:40;;;;;;;14.10;6.00;;;5.00;99.90;;;;;;5068577;28;20190;-77
2021/04/08 03:46:07;;;;;;;17.13;5.97;;;5.00;99.90;;;;;;5066929;28;20198;-76
2021/04/08 03:48:34;;;;;;;14.37;6.10;;;5.00;99.90;;;;;;5068809;28;20215;-77
2021/04/08 03:51:00;;;;;;;15.23;5.37;;;5.10;99.90;;;;;;5068509;28;20171;-78
2021/04/08 03:53:27;;;;;;;15.70;5.37;;;5.10;99.90;;;;;;5068815;28;20182;-77
2021/04/08 03:55:55;;;;;;;14.70;5.80;;;5.10;99.90;;;;;;5063998;28;20561;-77
2021/04/08 03:58:22;;;;;;;13.57;5.70;;;5.20;99.90;;;;;;5069046;28;20192;-77
2021/04/08 04:00:48;;;;;;;14.00;5.80;;;5.20;99.90;;;;;;5072184;28;20551;-77
2021/04/08 04:03:15;;;;;;;15.73;6.07;;;5.20;99.90;;;;;;5071324;28;20176;-75
2021/04/08 04:05:42;;;;;;;16.37;5.90;;;5.20;99.90;;;;;;5073900;28;20194;-76
2021/04/08 04:08:09;;;;;;;16.23;6.53;;;5.20;99.90;;;;;;5072373;28;20438;-76
2021/04/08 04:10:38;;;;;;;14.33;5.60;;;5.10;99.90;;;;;;5075383;28;20171;-76
2021/04/08 04:13:05;;;;;;;13.67;5.83;;;5.10;99.90;;;;;;5073008;28;20176;-76
2021/04/08 04:15:33;;;;;;;13.40;5.63;;;5.20;99.90;;;;;;5069587;28;20193;-76
2021/04/08 04:18:06;;;;;;;15.53;5.60;;;5.20;99.90;;;;;;5071757;28;20236;-76
2021/04/08 04:20:36;;;;;;;13.33;5.57;;;5.20;99.90;;;;;;5072815;28;20544;-76
2021/04/08 04:23:03;;;;;;;14.77;6.03;;;5.20;99.90;;;;;;5072843;28;20562;-76
2021/04/08 04:25:29;;;;;;;13.40;6.13;;;5.30;99.90;;;;;;5070597;28;20218;-76
2021/04/08 04:27:55;;;;;;;14.63;6.57;;;5.30;99.90;;;;;;5068443;28;20251;-77
2021/04/08 04:30:21;;;;;;;17.47;5.97;;;5.20;99.90;;;;;;5073968;28;20191;-76
2021/04/08 04:32:47;;;;;;;18.50;6.73;;;5.20;99.90;;;;;;5053591;28;20172;-76
2021/04/08 04:35:15;;;;;;;20.93;5.77;;;5.20;99.90;;;;;;5072078;28;20590;-75
2021/04/08 04:37:42;;;;;;;14.57;6.17;;;5.30;99.90;;;;;;5069678;28;20189;-76
2021/04/08 04:40:08;;;;;;;14.30;6.43;;;5.30;99.90;;;;;;5054032;28;20184;-76
2021/04/08 04:42:34;;;;;;;11.80;5.60;;;5.20;99.90;;;;;;5071613;28;20227;-76
2021/04/08 04:45:00;;;;;;;17.03;5.97;;;5.20;99.90;;;;;;5052665;28;20192;-76
2021/04/08 04:47:26;;;;;;;13.50;5.73;;;5.30;99.90;;;;;;5073131;28;20695;-76
2021/04/08 04:49:52;;;;;;;14.57;6.57;;;5.40;99.90;;;;;;5072250;28;20171;-76
2021/04/08 04:52:17;;;;;;;14.53;6.03;;;5.40;99.90;;;;;;5067507;28;20654;-76
2021/04/08 04:54:43;;;;;;;15.37;6.27;;;5.40;99.90;;;;;;5069888;28;20188;-76
2021/04/08 04:57:09;;;;;;;13.07;6.20;;;5.40;99.90;;;;;;5065458;28;20209;-75
2021/04/08 04:59:35;;;;;;;16.77;6.27;;;5.50;99.90;;;;;;5070920;28;20217;-76
2021/04/08 05:02:00;;;;;;;14.67;6.70;;;5.50;99.90;;;;;;5066184;28;20181;-76
2021/04/08 05:04:26;;;;;;;14.30;5.90;;;5.50;99.90;;;;;;5072665;28;20186;-76
2021/04/08 05:06:52;;;;;;;13.10;6.03;;;5.50;99.90;;;;;;5073278;28;20195;-77
2021/04/08 05:09:17;;;;;;;12.27;6.00;;;5.50;99.90;;;;;;5071549;28;20176;-76
2021/04/08 05:11:43;;;;;;;16.87;6.47;;;5.60;99.90;;;;;;5069761;28;20241;-76
2021/04/08 05:14:09;;;;;;;15.93;6.80;;;5.60;99.90;;;;;;5069830;28;20171;-76
2021/04/08 05:16:34;;;;;;;13.83;6.97;;;5.60;99.90;;;;;;5067544;28;20198;-76
2021/04/08 05:19:00;;;;;;;12.63;6.23;;;5.60;99.90;;;;;;5071970;28;20218;-76
2021/04/08 05:21:26;;;;;;;15.37;6.30;;;5.60;99.90;;;;;;5072523;28;20168;-76
2021/04/08 05:23:52;;;;;;;15.50;6.43;;;5.50;99.90;;;;;;5071829;28;20249;-76
2021/04/08 05:26:17;;;;;;;12.83;6.47;;;5.50;99.90;;;;;;5072765;28;20282;-76
2021/04/08 05:28:43;;;;;;;17.43;6.63;;;5.50;99.90;;;;;;5069162;28;20234;-76
2021/04/08 05:31:09;;;;;;;17.53;7.00;;;5.60;99.90;;;;;;5068812;28;20847;-77
2021/04/08 05:33:35;;;;;;;15.97;6.37;;;5.60;99.90;;;;;;5069625;28;20192;-76
2021/04/08 05:36:00;;;;;;;14.43;6.50;;;5.60;99.90;;;;;;5073031;28;20271;-76
2021/04/08 05:38:26;;;;;;;15.20;6.57;;;5.60;99.90;;;;;;5068853;28;20229;-76
2021/04/08 05:40:52;;;;;;;20.23;7.00;;;5.60;99.90;;;;;;5070314;28;20188;-76
2021/04/08 05:43:17;;;;;;;15.13;6.87;;;5.60;99.90;;;;;;5075524;28;20269;-76
2021/04/08 05:45:45;;;;;;;13.00;6.33;;;5.50;99.90;;;;;;5072929;28;20204;-76
2021/04/08 05:48:13;;;;;;;15.90;6.77;;;5.50;99.90;;;;;;5067308;28;20294;-76
2021/04/08 05:50:39;;;;;;;18.17;6.47;;;5.60;99.90;;;;;;5073630;28;20233;-76
2021/04/08 05:53:05;;;;;;;14.63;6.47;;;5.60;99.90;;;;;;5072719;28;20171;-76
2021/04/08 05:55:31;;;;;;;17.50;6.73;;;5.60;99.90;;;;;;5069857;28;20540;-75
2021/04/08 05:57:56;;;;;;;19.67;7.20;;;5.60;99.90;;;;;;5069002;28;20557;-77
2021/04/08 06:00:22;;;;;;;15.03;6.60;;;5.70;99.90;;;;;;5070972;28;20241;-76
2021/04/08 06:02:48;;;;;;;17.07;6.37;;;5.80;99.90;;;;;;5049790;28;20186;-76
2021/04/08 06:05:14;;;;;;;15.90;6.90;;;5.50;99.90;;;;;;5069375;28;20216;-76
2021/04/08 06:07:40;;;;;;;17.50;6.80;;;5.50;99.90;;;;;;5069030;28;20198;-76
2021/04/08 06:10:06;;;;;;;15.97;6.90;;;5.60;99.90;;;;;;5080850;28;20191;-76
2021/04/08 06:12:32;;;;;;;18.53;6.90;;;5.80;99.90;;;;;;5068563;28;20549;-76
2021/04/08 06:14:58;;;;;;;14.73;6.60;;;5.90;99.90;;;;;;5090636;28;20199;-75
2021/04/08 06:17:24;;;;;;;16.13;6.20;;;6.10;99.90;;;;;;5065463;28;20195;-76
2021/04/08 06:19:49;;;;;;;14.17;6.80;;;6.20;99.90;;;;;;5069184;28;20192;-76
2021/04/08 06:22:15;;;;;;;18.83;7.20;;;6.40;99.90;;;;;;5071266;28;20636;-76
2021/04/08 06:24:41;;;;;;;16.97;7.03;;;6.50;99.90;;;;;;5068600;28;20290;-76
2021/04/08 06:27:07;;;;;;;22.60;6.77;;;6.60;99.90;;;;;;5071492;28;20209;-77
2021/04/08 06:29:33;;;;;;;17.33;7.03;;;6.70;99.90;;;;;;5068276;28;20176;-76
2021/04/08 06:32:01;;;;;;;14.30;6.37;;;6.90;99.90;;;;;;5069744;28;20672;-76
2021/04/08 06:34:27;;;;;;;15.67;6.73;;;7.00;99.90;;;;;;5068744;28;20184;-77
2021/04/08 06:36:52;;;;;;;15.70;6.80;;;7.00;99.90;;;;;;5069489;28;20216;-76
2021/04/08 06:39:18;;;;;;;13.53;6.40;;;7.10;99.90;;;;;;5066551;28;20199;-76
2021/04/08 06:41:44;;;;;;;15.50;6.47;;;7.20;99.90;;;;;;5071907;28;20287;-76
2021/04/08 06:44:13;;;;;;;15.50;6.40;;;7.20;99.90;;;;;;5071019;28;20209;-76
2021/04/08 06:46:43;;;;;;;13.77;6.37;;;7.30;99.90;;;;;;5070723;28;20191;-76
2021/04/08 06:49:27;;;;;;;15.33;6.37;;;7.40;99.90;;;;;;5086514;28;20651;-77
2021/04/08 06:51:57;;;;;;;17.53;6.80;;;7.40;99.90;;;;;;5073108;28;20674;-76
2021/04/08 06:54:24;;;;;;;18.37;6.60;;;7.40;99.90;;;;;;5068093;28;20670;-77
2021/04/08 06:56:51;;;;;;;17.97;6.73;;;7.40;99.90;;;;;;5070781;28;20198;-76
2021/04/08 06:59:17;;;;;;;15.43;6.53;;;7.40;99.90;;;;;;5068652;28;20659;-76
2021/04/08 07:01:44;;;;;;;15.23;6.40;;;7.60;99.90;;;;;;5069528;28;20966;-78
2021/04/08 07:04:11;;;;;;;15.20;6.80;;;7.70;99.90;;;;;;5063837;28;20183;-77
2021/04/08 07:06:38;;;;;;;22.33;8.13;;;7.80;99.90;;;;;;5064946;28;20219;-78
2021/04/08 07:09:07;;;;;;;17.47;6.23;;;7.70;99.90;;;;;;5048956;28;20215;-78
2021/04/08 07:11:34;;;;;;;16.57;6.50;;;7.80;99.90;;;;;;5063305;28;20184;-77
2021/04/08 07:14:00;;;;;;;14.03;6.57;;;7.70;99.90;;;;;;5067980;28;20215;-78
2021/04/08 07:16:26;;;;;;;12.87;6.40;;;7.80;99.90;;;;;;5063702;28;20194;-77
2021/04/08 07:18:54;;;;;;;15.67;6.90;;;7.70;99.90;;;;;;5068145;28;20179;-78
2021/04/08 07:21:22;;;;;;;14.30;6.27;;;7.80;99.90;;;;;;5067902;28;20285;-78
2021/04/08 07:24:17;;;;;;;13.47;6.00;;;7.90;99.90;;;;;;5069237;28;20215;-78
2021/04/08 07:26:53;;;;;;;17.27;6.97;;;8.30;99.90;;;;;;5069390;28;20179;-78
2021/04/08 07:29:24;;;;;;;16.03;6.93;;;8.90;99.90;;;;;;5067305;28;21553;-75
2021/04/08 07:31:49;;;;;;;13.83;6.10;;;9.80;99.90;;;;;;5068206;28;20186;-76
2021/04/08 07:34:43;;;;;;;12.93;6.17;;;10.00;99.90;;;;;;5068419;28;20183;-76
2021/04/08 07:37:08;;;;;;;15.37;6.63;;;10.10;99.90;;;;;;5065017;28;20246;-76
2021/04/08 07:39:38;;;;;;;17.03;6.13;;;10.00;99.90;;;;;;5069561;28;20549;-76
2021/04/08 07:42:07;;;;;;;14.87;6.43;;;9.90;99.90;;;;;;5068167;28;20752;-76
2021/04/08 07:44:44;;;;;;;15.67;6.50;;;9.90;99.90;;;;;;5068328;28;20187;-76
2021/04/08 07:47:22;;;;;;;16.20;6.47;;;9.70;99.90;;;;;;5066581;28;20201;-76
2021/04/08 07:49:50;;;;;;;16.67;6.50;;;9.90;99.90;;;;;;5067720;28;20228;-76
2021/04/08 07:52:17;;;;;;;15.40;6.10;;;10.20;99.90;;;;;;5068296;28;20239;-77
2021/04/08 07:55:10;;;;;;;17.20;6.10;;;10.30;99.90;;;;;;5069292;28;20673;-76
2021/04/08 07:57:56;;;;;;;13.03;5.77;;;10.50;99.90;;;;;;5064574;28;20198;-76
2021/04/08 08:00:40;;;;;;;17.03;6.53;;;10.80;99.90;;;;;;5065588;28;20221;-78
2021/04/08 08:03:10;;;;;;;14.77;5.80;;;11.00;99.10;;;;;;5070156;28;20186;-77
2021/04/08 08:05:42;;;;;;;14.30;5.40;;;11.20;97.90;;;;;;5064397;28;20202;-76
2021/04/08 08:08:12;;;;;;;13.27;5.53;;;11.20;96.20;;;;;;5066542;28;20248;-77
2021/04/08 08:10:40;;;;;;;13.40;5.70;;;11.10;95.80;;;;;;5068421;28;20176;-76
2021/04/08 08:13:29;;;;;;;20.83;5.70;;;11.00;95.30;;;;;;5066356;28;20606;-76
2021/04/08 08:15:56;;;;;;;15.17;5.83;;;11.20;96.30;;;;;;5061037;28;20180;-77
2021/04/08 08:18:32;;;;;;;12.97;5.20;;;11.10;96.00;;;;;;5068332;28;20851;-77
2021/04/08 08:21:13;;;;;;;12.60;5.43;;;11.10;95.30;;;;;;5066978;28;20653;-78
2021/04/08 08:23:47;;;;;;;12.47;5.70;;;11.50;96.30;;;;;;5064020;28;20290;-77
2021/04/08 08:26:23;;;;;;;15.13;5.60;;;11.60;95.10;;;;;;5048882;28;20194;-78
2021/04/08 08:28:49;;;;;;;14.80;5.70;;;11.60;94.00;;;;;;5065586;28;20368;-76
2021/04/08 08:31:35;;;;;;;14.70;5.50;;;11.70;94.10;;;;;;5068151;28;20267;-77
2021/04/08 08:34:05;;;;;;;13.07;5.63;;;11.80;93.60;;;;;;5066832;28;20175;-77
2021/04/08 08:36:31;;;;;;;12.87;5.60;;;12.10;93.90;;;;;;5066148;28;20193;-77
2021/04/08 08:39:00;;;;;;;13.80;6.17;;;12.20;93.60;;;;;;5067869;28;20191;-76
2021/04/08 08:41:30;;;;;;;11.50;5.50;;;12.20;92.80;;;;;;5044053;28;20230;-76
2021/04/08 08:43:57;;;;;;;13.97;5.90;;;12.50;93.20;;;;;;5050262;28;20700;-77
2021/04/08 08:46:26;;;;;;;12.60;6.00;;;12.60;92.70;;;;;;5065424;28;20180;-77
2021/04/08 08:48:53;;;;;;;12.80;6.40;;;12.50;90.70;;;;;;5072412;28;20452;-76
2021/04/08 08:51:21;;;;;;;15.10;6.23;;;12.10;91.60;;;;;;5064612;28;20206;-76
2021/04/08 08:53:47;;;;;;;14.07;6.23;;;12.10;91.80;;;;;;5069811;28;20191;-76
2021/04/08 08:56:14;;;;;;;13.67;5.77;;;12.40;92.30;;;;;;5072335;28;20189;-76
2021/04/08 08:58:40;;;;;;;15.77;6.50;;;12.60;91.30;;;;;;5091758;28;20204;-76
2021/04/08 09:01:06;;;;;;;15.60;6.30;;;12.70;91.60;;;;;;5070411;28;20259;-76
2021/04/08 09:03:32;;;;;;;18.93;6.13;;;12.70;90.20;;;;;;5076784;28;20393;-76
2021/04/08 09:06:00;;;;;;;16.17;6.40;;;12.60;90.10;;;;;;5070939;28;20250;-76
2021/04/08 09:08:29;;;;;;;14.37;6.07;;;12.30;89.30;;;;;;5071672;28;20210;-76
2021/04/08 09:10:55;;;;;;;15.37;6.10;;;12.00;89.00;;;;;;5087116;28;20336;-77
2021/04/08 09:13:21;;;;;;;15.17;5.90;;;12.00;90.50;;;;;;5072139;28;20223;-76
2021/04/08 09:15:47;;;;;;;15.53;6.00;;;12.20;90.50;;;;;;5072601;28;20179;-76
2021/04/08 09:18:18;;;;;;;12.83;6.10;;;12.20;89.50;;;;;;5072575;28;20314;-76
2021/04/08 09:20:45;;;;;;;13.03;5.90;;;12.30;90.20;;;;;;5070272;28;20206;-76
2021/04/08 09:23:12;;;;;;;19.80;5.63;;;12.10;89.00;;;;;;5070696;28;20214;-76
2021/04/08 09:25:40;;;;;;;15.37;6.00;;;12.30;87.10;;;;;;5069577;28;20189;-77
2021/04/08 09:28:11;;;;;;;13.37;6.33;;;12.30;87.10;;;;;;5070319;28;20208;-77
2021/04/08 09:33:39;;;;;;;14.53;6.30;;;12.50;85.50;;;;;;5072106;28;20545;-76
2021/04/08 09:36:26;;;;;;;15.63;6.33;;;13.00;87.60;;;;;;5087392;28;20192;-76
2021/04/08 09:39:12;;;;;;;13.87;6.70;;;13.20;85.20;;;;;;5070081;28;20226;-76
2021/04/08 09:41:56;;;;;;;14.67;6.10;;;13.20;86.90;;;;;;5066395;28;20228;-75
2021/04/08 09:44:23;;;;;;;13.00;5.47;;;13.00;83.20;;;;;;5068435;28;20666;-76
2021/04/08 09:46:53;;;;;;;13.10;6.30;;;13.30;80.40;;;;;;5068227;28;20184;-76
2021/04/08 09:49:37;;;;;;;14.07;5.70;;;13.40;81.00;;;;;;5070062;28;20257;-75
2021/04/08 09:52:03;;;;;;;16.07;6.33;;;13.60;81.60;;;;;;5069035;28;20211;-76
2021/04/08 09:54:41;;;;;;;17.53;7.37;;;14.00;80.40;;;;;;5070775;28;20239;-76
2021/04/08 09:57:08;;;;;;;18.33;7.83;;;13.90;80.50;;;;;;5071500;28;20182;-76
2021/04/08 09:59:57;;;;;;;12.60;6.00;;;14.10;80.10;;;;;;5070317;28;20188;-76
2021/04/08 10:02:24;;;;;;;11.77;5.83;;;13.80;73.90;;;;;;5068447;28;20254;-76
2021/04/08 10:05:35;;;;;;;13.07;5.80;;;13.50;75.70;;;;;;5052956;28;20234;-76
2021/04/08 10:08:02;;;;;;;12.47;5.50;;;12.90;74.30;;;;;;5050849;28;20211;-76
2021/04/08 10:10:36;;;;;;;11.53;5.50;;;13.40;75.10;;;;;;5073940;28;20227;-76
2021/04/08 10:13:13;;;;;;;11.03;4.93;;;13.20;70.60;;;;;;5069505;28;20183;-76
2021/04/08 10:15:38;;;;;;;11.33;5.30;;;13.10;70.90;;;;;;5068990;28;20179;-76
2021/04/08 10:18:19;;;;;;;10.53;5.33;;;12.70;70.30;;;;;;5071499;28;20191;-76
2021/04/08 10:20:47;;;;;;;12.13;5.63;;;12.30;72.30;;;;;;5071676;28;20190;-76
2021/04/08 10:23:13;;;;;;;12.17;5.57;;;12.20;73.40;;;;;;5089821;28;20644;-75
2021/04/08 10:25:39;;;;;;;13.83;5.57;;;12.10;72.50;;;;;;5069922;28;20193;-76
2021/04/08 10:28:05;;;;;;;17.00;6.27;;;12.10;75.10;;;;;;5061571;28;20762;-75
2021/04/08 10:30:38;;;;;;;10.60;5.57;;;12.20;72.60;;;;;;5087127;28;20183;-75
2021/04/08 10:33:17;;;;;;;14.10;5.90;;;12.20;74.10;;;;;;5068912;28;20180;-76
2021/04/08 10:35:44;;;;;;;11.27;6.50;;;12.50;73.00;;;;;;5062363;28;20243;-76
2021/04/08 10:38:10;;;;;;;12.30;5.67;;;12.70;73.40;;;;;;5071349;28;20581;-77
2021/04/08 10:40:36;;;;;;;14.47;5.80;;;13.00;68.90;;;;;;5057142;28;20188;-77
2021/04/08 10:43:16;;;;;;;10.67;5.53;;;13.40;69.00;;;;;;5066827;28;20229;-76
2021/04/08 10:45:54;;;;;;;12.37;5.20;;;13.60;70.20;;;;;;5084236;28;20193;-77
2021/04/08 10:48:21;;;;;;;11.47;5.50;;;14.30;70.60;;;;;;5062135;28;20212;-76
2021/04/08 10:50:48;;;;;;;13.83;5.90;;;14.50;66.60;;;;;;5072614;28;20177;-77
2021/04/08 10:53:19;;;;;;;16.40;6.33;;;14.70;66.90;;;;;;5067873;28;20178;-76
2021/04/08 10:55:45;;;;;;;11.07;6.20;;;14.70;67.10;;;;;;5045983;28;20177;-76
2021/04/08 10:58:26;;;;;;;12.70;6.10;;;14.60;66.00;;;;;;5070622;28;20252;-77
2021/04/08 11:00:53;;;;;;;13.40;6.80;;;14.80;63.80;;;;;;5068624;28;20723;-77
2021/04/08 11:03:19;;;;;;;13.10;6.50;;;14.90;64.80;;;;;;5071413;28;20225;-76
2021/04/08 11:05:45;;;;;;;13.80;6.30;;;15.30;64.70;;;;;;5065088;28;20285;-77
2021/04/08 11:08:11;;;;;;;16.60;7.00;;;15.40;62.70;;;;;;5067517;28;20228;-76
2021/04/08 11:10:37;;;;;;;11.87;6.33;;;15.30;61.70;;;;;;5068781;28;20185;-77
2021/04/08 11:13:05;;;;;;;11.33;5.87;;;15.50;63.90;;;;;;5069430;28;20195;-76
2021/04/08 11:15:35;;;;;;;10.57;6.07;;;15.60;61.60;;;;;;5068846;28;20616;-76
2021/04/08 11:18:11;;;;;;;11.23;6.20;;;15.70;60.90;;;;;;5067025;28;20183;-76
2021/04/08 11:20:44;;;;;;;16.33;7.27;;;15.60;59.50;;;;;;5065574;28;20621;-76
2021/04/08 11:23:11;;;;;;;14.83;6.20;;;15.00;61.40;;;;;;5072345;28;20548;-76
2021/04/08 11:25:37;;;;;;;12.43;6.43;;;14.90;61.20;;;;;;5051404;28;20196;-76
2021/04/08 11:28:05;;;;;;;10.83;6.13;;;15.00;61.00;;;;;;5067801;28;20817;-76
2021/04/08 11:30:40;;;;;;;12.63;6.10;;;15.20;59.30;;;;;;5068895;28;20180;-76
2021/04/08 11:33:22;;;;;;;15.30;6.10;;;15.60;60.30;;;;;;5066816;28;20187;-76
2021/04/08 11:35:47;;;;;;;16.13;5.73;;;16.50;59.50;;;;;;5067184;28;20179;-76
2021/04/08 11:38:22;;;;;;;10.47;5.67;;;16.60;59.40;;;;;;5066124;28;20278;-76
2021/04/08 11:40:51;;;;;;;15.27;6.30;;;17.40;58.80;;;;;;5066660;28;20207;-76
2021/04/08 11:43:26;;;;;;;12.30;5.90;;;17.80;57.00;;;;;;5050719;28;20243;-76
2021/04/08 11:45:57;;;;;;;13.67;6.10;;;16.60;56.70;;;;;;5068732;28;20736;-76
2021/04/08 11:48:23;;;;;;;14.77;6.13;;;15.80;60.60;;;;;;5070436;28;20214;-77
2021/04/08 11:50:50;;;;;;;11.53;5.87;;;15.20;58.80;;;;;;5066824;28;20187;-76
2021/04/08 11:53:20;;;;;;;12.70;6.27;;;15.30;58.50;;;;;;5067534;28;20185;-76
2021/04/08 11:55:48;;;;;;;14.63;5.97;;;15.70;59.30;;;;;;5069618;28;20183;-76
2021/04/08 11:58:25;;;;;;;12.67;6.30;;;16.70;59.80;;;;;;5057621;28;20609;-76
2021/04/08 12:00:52;;;;;;;10.83;6.30;;;17.60;58.30;;;;;;5067110;28;20195;-76
2021/04/08 12:03:20;;;;;;;12.20;6.00;;;18.50;55.80;;;;;;5069049;28;20228;-76
2021/04/08 12:05:47;;;;;;;10.90;6.00;;;19.70;54.70;;;;;;5082684;28;20185;-76
2021/04/08 12:08:13;;;;;;;13.40;5.70;;;20.30;52.20;;;;;;5069584;28;20225;-77
2021/04/08 12:10:39;;;;;;;11.37;6.27;;;19.80;51.00;;;;;;5064659;28;20207;-76
2021/04/08 12:13:06;;;;;;;12.40;6.27;;;19.80;51.10;;;;;;5066703;28;20526;-77
2021/04/08 12:15:38;;;;;;;11.57;6.23;;;19.10;50.10;;;;;;5067117;28;20199;-76
2021/04/08 12:18:17;;;;;;;11.40;6.13;;;17.30;52.40;;;;;;5068347;28;20267;-76
2021/04/08 12:20:43;;;;;;;11.67;6.57;;;16.40;53.50;;;;;;5067216;28;20182;-76
2021/04/08 12:23:11;;;;;;;11.20;6.37;;;16.30;55.50;;;;;;5071570;28;20193;-77
2021/04/08 12:25:48;;;;;;;15.30;6.73;;;16.40;54.80;;;;;;5071759;28;20193;-76
2021/04/08 12:28:14;;;;;;;12.10;6.50;;;17.20;55.30;;;;;;5069323;28;20292;-76
2021/04/08 12:30:47;;;;;;;13.73;6.53;;;18.00;52.00;;;;;;5070410;28;20612;-76
2021/04/08 12:33:17;;;;;;;10.73;5.87;;;18.70;53.70;;;;;;5052609;28;20194;-77
2021/04/08 12:35:45;;;;;;;13.20;6.53;;;19.40;50.80;;;;;;5069748;28;20231;-77
2021/04/08 12:38:11;;;;;;;13.23;6.10;;;19.90;50.80;;;;;;5071796;28;20179;-76
2021/04/08 12:40:37;;;;;;;12.87;5.80;;;20.20;50.90;;;;;;5067730;28;20608;-76
2021/04/08 12:43:03;;;;;;;14.83;6.20;;;19.90;50.00;;;;;;5074038;28;20289;-76
2021/04/08 12:45:29;;;;;;;13.70;6.47;;;19.40;50.60;;;;;;5073862;28;20239;-76
2021/04/08 12:47:54;;;;;;;11.67;6.70;;;18.40;50.70;;;;;;5070636;28;20212;-76
2021/04/08 12:50:20;;;;;;;14.60;6.43;;;17.30;51.90;;;;;;5073724;28;20178;-76
2021/04/08 12:52:46;;;;;;;14.63;6.20;;;16.90;53.60;;;;;;5068078;28;20187;-76
2021/04/08 12:55:12;;;;;;;16.33;7.13;;;16.60;55.90;;;;;;5089416;28;20177;-76
2021/04/08 12:57:38;;;;;;;16.43;7.10;;;16.10;54.60;;;;;;5073862;28;20180;-76